createdAt,value
2022-11-03T00:00:12.807Z,100029.84
2022-11-03T00:01:17.390Z,100024.91
2022-11-03T00:02:23.793Z,100026.97
2022-11-03T00:03:27.627Z,100021.59
2022-11-03T00:04:34.137Z,100023.19
2022-11-03T00:05:54.900Z,100022.38
2022-11-03T00:06:57.513Z,100030.38
2022-11-03T00:08:07.400Z,100025.09
2022-11-03T00:09:11.867Z,100022.72
2022-11-03T00:10:13.862Z,100021.28
2022-11-03T00:11:16.986Z,100022.06
2022-11-03T00:12:19.339Z,100024.31
2022-11-03T00:13:23.788Z,100030.22
2022-11-03T00:14:26.613Z,100022.22
2022-11-03T00:15:29.292Z,100021.59
2022-11-03T00:16:32.536Z,100031.50
2022-11-03T00:17:37.374Z,100028.28
2022-11-03T00:18:39.836Z,100031.03
2022-11-03T00:19:45.476Z,100031.16
2022-11-03T00:21:00.542Z,100025.56
2022-11-03T00:22:03.165Z,100031.16
2022-11-03T00:23:08.887Z,100026.72
2022-11-03T00:24:12.170Z,100026.38
2022-11-03T00:25:14.179Z,100021.59
2022-11-03T00:26:33.990Z,100025.72
2022-11-03T00:27:39.121Z,100025.75
2022-11-03T00:28:43.887Z,100036.16
2022-11-03T00:29:45.901Z,100031.03
2022-11-03T00:30:50.589Z,100038.72
2022-11-03T00:31:53.553Z,100031.66
2022-11-03T00:32:58.489Z,100034.06
2022-11-03T00:34:05.438Z,100037.09
2022-11-03T00:35:09.002Z,100025.56
2022-11-03T00:36:16.935Z,100038.69
2022-11-03T00:37:19.717Z,100028.00
2022-11-03T00:38:21.983Z,100028.31
2022-11-03T00:39:24.398Z,100037.59
2022-11-03T00:40:31.994Z,100029.59
2022-11-03T00:41:36.685Z,100036.00
2022-11-03T00:42:40.096Z,100035.84
2022-11-03T00:43:42.850Z,100039.84
2022-11-03T00:44:46.671Z,100039.50
2022-11-03T00:45:56.365Z,100044.94
2022-11-03T00:46:59.646Z,100038.81
2022-11-03T00:48:20.262Z,100044.13
2022-11-03T00:49:22.206Z,100039.91
2022-11-03T00:50:26.606Z,100046.53
2022-11-03T00:51:35.863Z,100047.31
2022-11-03T00:52:40.005Z,100042.88
2022-11-03T00:54:10.342Z,100052.13
2022-11-03T00:55:17.153Z,100044.59
2022-11-03T00:56:30.954Z,100043.50
2022-11-03T00:57:32.930Z,100051.88
2022-11-03T00:58:36.087Z,100043.38
2022-11-03T00:59:38.980Z,100040.47
2022-11-03T01:00:43.963Z,100046.22
2022-11-03T01:01:47.768Z,100050.56
2022-11-03T01:02:52.005Z,100046.22
2022-11-03T01:04:15.091Z,100054.09
2022-11-03T01:05:35.608Z,100053.59
2022-11-03T01:06:50.999Z,100052.16
2022-11-03T01:07:55.107Z,100049.78
2022-11-03T01:09:00.638Z,100050.09
2022-11-03T01:10:04.198Z,100045.44
2022-11-03T01:11:31.986Z,100049.31
2022-11-03T01:12:34.395Z,100046.25
2022-11-03T01:13:39.804Z,100041.75
2022-11-03T01:14:47.119Z,100053.13
2022-11-03T01:15:50.256Z,100053.78
2022-11-03T01:16:56.269Z,100053.13
2022-11-03T01:18:02.349Z,100051.53
2022-11-03T01:19:05.902Z,100048.81
2022-11-03T01:20:09.157Z,100036.97
2022-11-03T01:21:20.204Z,100057.81
2022-11-03T01:22:24.482Z,100048.03
2022-11-03T01:23:30.359Z,100044.81
2022-11-03T01:24:34.849Z,100052.19
2022-11-03T01:25:39.976Z,100051.06
2022-11-03T01:26:41.932Z,100051.06
2022-11-03T01:27:45.559Z,100052.66
2022-11-03T01:29:01.615Z,100046.59
2022-11-03T01:30:04.518Z,100049.59
2022-11-03T01:31:22.615Z,100050.09
2022-11-03T01:32:25.209Z,100045.63
2022-11-03T01:33:27.796Z,100051.06
2022-11-03T01:34:36.411Z,100046.53
2022-11-03T01:35:38.417Z,100059.56
2022-11-03T01:36:43.766Z,100045.75
2022-11-03T01:37:45.907Z,100057.78
2022-11-03T01:38:52.165Z,100050.09
2022-11-03T01:39:54.926Z,100045.44
2022-11-03T01:40:57.851Z,100055.22
2022-11-03T01:42:01.483Z,100050.72
2022-11-03T01:43:21.158Z,100052.31
2022-11-03T01:44:50.792Z,100051.22
2022-11-03T01:46:07.034Z,100052.81
2022-11-03T01:47:29.971Z,100053.94
2022-11-03T01:48:37.235Z,100051.06
2022-11-03T01:49:50.267Z,100051.88
2022-11-03T01:50:54.282Z,100055.88
2022-11-03T01:52:10.912Z,100052.00
2022-11-03T01:53:14.605Z,100057.44
2022-11-03T01:54:21.906Z,100054.53
2022-11-03T01:55:28.937Z,100054.69
2022-11-03T01:56:34.429Z,100055.81
2022-11-03T01:57:49.338Z,100050.69
2022-11-03T01:58:55.626Z,100051.31
2022-11-03T02:00:00.763Z,100051.50
2022-11-03T02:01:05.989Z,100057.44
2022-11-03T02:03:27.994Z,100054.22
2022-11-03T02:04:33.832Z,100048.00
2022-11-03T02:05:37.833Z,100053.28
2022-11-03T02:06:40.775Z,100048.00
2022-11-03T02:08:06.258Z,100056.97
2022-11-03T02:09:11.077Z,100052.66
2022-11-03T02:10:15.915Z,100048.94
2022-11-03T02:11:39.651Z,100050.09
2022-11-03T02:12:44.085Z,100057.31
2022-11-03T02:13:47.150Z,100060.97
2022-11-03T02:14:58.954Z,100056.50
2022-11-03T02:16:03.042Z,100061.09
2022-11-03T02:17:12.185Z,100066.50
2022-11-03T02:18:20.950Z,100063.34
2022-11-03T02:19:31.894Z,100061.28
2022-11-03T02:20:34.967Z,100060.44
2022-11-03T02:21:55.513Z,100065.72
2022-11-03T02:23:12.614Z,100063.91
2022-11-03T02:24:35.527Z,100058.59
2022-11-03T02:25:42.481Z,100070.13
2022-11-03T02:26:53.649Z,100059.28
2022-11-03T02:27:55.716Z,100070.47
2022-11-03T02:28:59.037Z,100062.75
2022-11-03T02:30:01.384Z,100063.53
2022-11-03T02:31:08.843Z,100063.25
2022-11-03T02:32:23.839Z,100058.91
2022-11-03T02:33:38.011Z,100066.72
2022-11-03T02:34:46.738Z,100065.66
2022-11-03T02:36:17.988Z,100062.53
2022-11-03T02:37:25.974Z,100064.47
2022-11-03T02:38:31.212Z,100065.59
2022-11-03T02:39:39.596Z,100069.97
2022-11-03T02:40:58.628Z,100060.50
2022-11-03T02:42:05.084Z,100060.69
2022-11-03T02:43:10.994Z,100062.63
2022-11-03T02:44:17.574Z,100065.94
2022-11-03T02:45:22.721Z,100058.41
2022-11-03T02:46:29.517Z,100062.25
2022-11-03T02:47:35.044Z,100052.84
2022-11-03T02:48:40.059Z,100062.41
2022-11-03T02:49:50.290Z,100047.72
2022-11-03T02:50:56.158Z,100048.13
2022-11-03T02:52:02.837Z,100042.81
2022-11-03T02:53:06.215Z,100043.63
2022-11-03T02:54:30.517Z,100041.88
2022-11-03T02:55:51.533Z,100055.44
2022-11-03T02:57:15.722Z,100054.97
2022-11-03T02:58:29.797Z,100057.31
2022-11-03T02:59:48.534Z,100051.88
2022-11-03T03:00:50.824Z,100052.53
2022-11-03T03:02:12.953Z,100063.72
2022-11-03T03:03:40.700Z,100059.56
2022-11-03T03:04:49.409Z,100058.31
2022-11-03T03:05:57.930Z,100058.19
2022-11-03T03:07:06.760Z,100060.91
2022-11-03T03:08:11.993Z,100059.63
2022-11-03T03:09:26.336Z,100057.38
2022-11-03T03:10:34.743Z,100055.28
2022-11-03T03:11:41.486Z,100062.34
2022-11-03T03:12:48.805Z,100061.28
2022-11-03T03:13:51.827Z,100054.50
2022-11-03T03:14:57.426Z,100063.94
2022-11-03T03:16:17.133Z,100056.38
2022-11-03T03:17:34.291Z,100055.44
2022-11-03T03:18:56.573Z,100054.19
2022-11-03T03:20:31.762Z,100056.47
2022-11-03T03:21:42.664Z,100056.31
2022-11-03T03:23:11.680Z,100062.53
2022-11-03T03:24:32.628Z,100063.19
2022-11-03T03:26:04.265Z,100056.00
2022-11-03T03:27:11.425Z,100065.16
2022-11-03T03:28:26.806Z,100070.59
2022-11-03T03:29:46.421Z,100064.00
2022-11-03T03:30:49.395Z,100069.94
2022-11-03T03:31:57.616Z,100065.16
2022-11-03T03:33:04.395Z,100070.25
2022-11-03T03:34:23.685Z,100065.16
2022-11-03T03:35:42.545Z,100061.91
2022-11-03T03:36:48.889Z,100058.09
2022-11-03T03:37:55.014Z,100075.69
2022-11-03T03:39:01.114Z,100067.97
2022-11-03T03:40:09.071Z,100064.28
2022-11-03T03:41:23.352Z,100072.06
2022-11-03T03:42:30.364Z,100073.53
2022-11-03T03:43:35.180Z,100066.16
2022-11-03T03:44:40.822Z,100071.00
2022-11-03T03:45:47.158Z,100069.56
2022-11-03T03:46:55.357Z,100068.38
2022-11-03T03:47:58.272Z,100064.53
2022-11-03T03:49:03.245Z,100065.03
2022-11-03T03:50:08.213Z,100065.06
2022-11-03T03:51:13.531Z,100071.16
2022-11-03T03:52:16.165Z,100070.84
2022-11-03T03:53:20.160Z,100069.75
2022-11-03T03:54:22.369Z,100065.56
2022-11-03T03:55:43.132Z,100072.09
2022-11-03T03:56:58.954Z,100074.53
2022-11-03T03:58:04.783Z,100076.88
2022-11-03T03:59:07.055Z,100071.78
2022-11-03T04:00:13.801Z,100080.34
2022-11-03T04:01:16.219Z,100072.75
2022-11-03T04:02:18.453Z,100071.69
2022-11-03T04:03:25.547Z,100087.28
2022-11-03T04:04:29.188Z,100080.03
2022-11-03T04:05:31.195Z,100075.72
2022-11-03T04:06:33.479Z,100072.16
2022-11-03T04:07:47.680Z,100081.97
2022-11-03T04:08:50.536Z,100074.19
2022-11-03T04:09:52.661Z,100071.78
2022-11-03T04:11:13.424Z,100066.09
2022-11-03T04:12:35.084Z,100072.47
2022-11-03T04:13:58.255Z,100079.97
2022-11-03T04:15:19.078Z,100076.09
2022-11-03T04:16:43.349Z,100075.38
2022-11-03T04:18:08.638Z,100077.78
2022-11-03T04:19:32.104Z,100073.81
2022-11-03T04:20:53.572Z,100082.03
2022-11-03T04:22:26.512Z,100079.69
2022-11-03T04:23:28.591Z,100087.50
2022-11-03T04:24:35.040Z,100087.69
2022-11-03T04:25:38.290Z,100085.19
2022-11-03T04:26:40.929Z,100093.94
2022-11-03T04:27:42.920Z,100083.50
2022-11-03T04:28:54.796Z,100088.78
2022-11-03T04:30:07.510Z,100093.00
2022-11-03T04:31:20.675Z,100094.63
2022-11-03T04:32:28.472Z,100088.97
2022-11-03T04:33:35.882Z,100089.91
2022-11-03T04:34:38.588Z,100088.59
2022-11-03T04:35:41.022Z,100089.84
2022-11-03T04:36:48.419Z,100091.78
2022-11-03T04:38:43.106Z,100087.34
2022-11-03T04:39:46.714Z,100090.13
2022-11-03T04:40:59.210Z,100084.47
2022-11-03T04:42:24.089Z,100088.03
2022-11-03T04:43:38.814Z,100090.66
2022-11-03T04:44:41.218Z,100095.75
2022-11-03T04:45:46.908Z,100097.16
2022-11-03T04:46:49.677Z,100093.72
2022-11-03T04:47:54.077Z,100095.03
2022-11-03T04:49:00.856Z,100099.03
2022-11-03T04:50:07.450Z,100100.13
2022-11-03T04:51:22.415Z,100099.47
2022-11-03T04:52:37.343Z,100091.28
2022-11-03T04:54:01.866Z,100096.13
2022-11-03T04:55:11.077Z,100100.09
2022-11-03T04:56:18.507Z,100099.00
2022-11-03T04:57:20.479Z,100090.75
2022-11-03T04:58:26.670Z,100092.09
2022-11-03T04:59:32.291Z,100088.78
2022-11-03T05:00:34.463Z,100084.50
2022-11-03T05:01:38.523Z,100085.13
2022-11-03T05:02:40.963Z,100080.97
2022-11-03T05:03:46.760Z,100089.13
2022-11-03T05:04:49.878Z,100091.16
2022-11-03T05:05:55.048Z,100092.94
2022-11-03T05:06:57.574Z,100086.78
2022-11-03T05:08:01.026Z,100092.41
2022-11-03T05:09:11.765Z,100088.94
2022-11-03T05:10:20.551Z,100095.75
2022-11-03T05:11:31.419Z,100089.00
2022-11-03T05:12:34.021Z,100095.56
2022-11-03T05:13:36.542Z,100096.34
2022-11-03T05:14:47.329Z,100092.00
2022-11-03T05:16:00.510Z,100101.88
2022-11-03T05:17:18.635Z,100102.06
2022-11-03T05:18:25.351Z,100092.78
2022-11-03T05:19:37.143Z,100087.69
2022-11-03T05:21:06.873Z,100094.94
2022-11-03T05:22:25.815Z,100091.16
2022-11-03T05:23:37.005Z,100094.00
2022-11-03T05:24:39.408Z,100097.38
2022-11-03T05:25:45.597Z,100096.50
2022-11-03T05:26:50.181Z,100091.56
2022-11-03T05:27:54.100Z,100094.94
2022-11-03T05:29:02.373Z,100096.00
2022-11-03T05:30:04.962Z,100092.38
2022-11-03T05:31:22.216Z,100089.00
2022-11-03T05:32:31.115Z,100084.66
2022-11-03T05:33:36.808Z,100086.59
2022-11-03T05:34:52.970Z,100096.53
2022-11-03T05:35:57.411Z,100088.53
2022-11-03T05:37:06.284Z,100101.66
2022-11-03T05:38:14.432Z,100095.88
2022-11-03T05:39:38.412Z,100095.38
2022-11-03T05:40:41.954Z,100089.66
2022-11-03T05:41:45.704Z,100095.44
2022-11-03T05:42:52.444Z,100093.84
2022-11-03T05:44:34.402Z,100093.00
2022-11-03T05:45:38.196Z,100090.16
2022-11-03T05:46:40.608Z,100098.47
2022-11-03T05:47:43.460Z,100093.81
2022-11-03T05:48:49.712Z,100090.00
2022-11-03T05:49:56.472Z,100098.66
2022-11-03T05:51:29.933Z,100098.66
2022-11-03T05:52:31.988Z,100099.13
2022-11-03T05:53:39.574Z,100104.88
2022-11-03T05:54:43.095Z,100106.00
2022-11-03T05:55:45.523Z,100095.78
2022-11-03T05:56:48.754Z,100104.28
2022-11-03T05:57:51.421Z,100102.16
2022-11-03T05:58:58.753Z,100106.00
2022-11-03T06:00:29.079Z,100106.16
2022-11-03T06:01:39.755Z,100119.25
2022-11-03T06:02:44.127Z,100105.34
2022-11-03T06:03:47.428Z,100103.44
2022-11-03T06:04:49.601Z,100106.94
2022-11-03T06:05:54.058Z,100106.78
2022-11-03T06:07:15.035Z,100104.56
2022-11-03T06:08:27.003Z,100097.50
2022-11-03T06:09:36.790Z,100102.75
2022-11-03T06:10:53.181Z,100103.91
2022-11-03T06:12:00.225Z,100104.22
2022-11-03T06:13:39.468Z,100108.06
2022-11-03T06:14:45.045Z,100102.00
2022-11-03T06:15:49.497Z,100103.63
2022-11-03T06:17:06.407Z,100105.84
2022-11-03T06:18:33.427Z,100106.34
2022-11-03T06:20:08.663Z,100107.94
2022-11-03T06:21:50.831Z,100107.13
2022-11-03T06:22:57.713Z,100110.66
2022-11-03T06:23:59.916Z,100116.44
2022-11-03T06:25:21.977Z,100109.84
2022-11-03T06:26:30.819Z,100116.06
2022-11-03T06:27:47.210Z,100114.34
2022-11-03T06:28:50.106Z,100116.91
2022-11-03T06:29:59.380Z,100111.31
2022-11-03T06:31:03.460Z,100111.31
2022-11-03T06:32:14.623Z,100112.59
2022-11-03T06:33:23.208Z,100108.75
2022-11-03T06:34:31.410Z,100111.00
2022-11-03T06:35:36.824Z,100108.13
2022-11-03T06:36:42.053Z,100100.41
2022-11-03T06:37:47.823Z,100105.56
2022-11-03T06:39:18.336Z,100114.06
2022-11-03T06:40:25.304Z,100115.63
2022-11-03T06:41:33.603Z,100116.28
2022-11-03T06:42:36.766Z,100103.63
2022-11-03T06:43:42.226Z,100108.56
2022-11-03T06:44:50.779Z,100108.38
2022-11-03T06:45:59.703Z,100108.38
2022-11-03T06:47:15.425Z,100100.38
2022-11-03T06:48:24.494Z,100104.53
2022-11-03T06:49:32.263Z,100104.56
2022-11-03T06:50:38.855Z,100110.34
2022-11-03T06:51:48.255Z,100107.28
2022-11-03T06:52:55.107Z,100110.19
2022-11-03T06:54:00.751Z,100115.28
2022-11-03T06:55:12.208Z,100108.72
2022-11-03T06:56:26.766Z,100109.72
2022-11-03T06:57:33.470Z,100108.09
2022-11-03T06:58:38.022Z,100107.13
2022-11-03T06:59:41.039Z,100111.94
2022-11-03T07:00:48.923Z,100107.94
2022-11-03T07:01:56.174Z,100112.44
2022-11-03T07:03:11.702Z,100116.25
2022-11-03T07:04:17.110Z,100108.91
2022-11-03T07:05:25.539Z,100111.16
2022-11-03T07:06:32.229Z,100108.44
2022-11-03T07:07:37.455Z,100111.13
2022-11-03T07:08:43.703Z,100110.34
2022-11-03T07:09:45.703Z,100110.22
2022-11-03T07:10:58.565Z,100116.44
2022-11-03T07:12:01.005Z,100119.94
2022-11-03T07:13:27.044Z,100114.81
2022-11-03T07:14:32.847Z,100110.34
2022-11-03T07:15:40.247Z,100115.94
2022-11-03T07:17:17.088Z,100121.22
2022-11-03T07:18:26.008Z,100120.91
2022-11-03T07:19:41.910Z,100121.84
2022-11-03T07:20:44.062Z,100118.34
2022-11-03T07:21:55.030Z,100119.63
2022-11-03T07:23:03.924Z,100115.47
2022-11-03T07:24:47.177Z,100114.50
2022-11-03T07:25:59.655Z,100113.69
2022-11-03T07:27:20.285Z,100126.69
2022-11-03T07:28:27.011Z,100118.06
2022-11-03T07:29:31.515Z,100122.84
2022-11-03T07:30:37.185Z,100119.00
2022-11-03T07:31:41.016Z,100128.63
2022-11-03T07:32:50.292Z,100129.25
2022-11-03T07:33:59.072Z,100127.63
2022-11-03T07:35:41.657Z,100127.34
2022-11-03T07:36:56.148Z,100127.84
2022-11-03T07:38:03.934Z,100126.69
2022-11-03T07:39:11.959Z,100129.25
2022-11-03T07:40:25.833Z,100119.34
2022-11-03T07:41:34.467Z,100131.50
2022-11-03T07:42:38.014Z,100123.97
2022-11-03T07:43:48.606Z,100133.13
2022-11-03T07:44:52.562Z,100125.72
2022-11-03T07:46:05.579Z,100127.50
2022-11-03T07:47:16.593Z,100133.13
2022-11-03T07:48:26.261Z,100129.28
2022-11-03T07:49:31.539Z,100130.41
2022-11-03T07:50:34.741Z,100128.63
2022-11-03T07:51:43.818Z,100129.41
2022-11-03T07:52:49.217Z,100136.78
2022-11-03T07:53:57.951Z,100130.56
2022-11-03T07:55:03.632Z,100128.28
2022-11-03T07:56:26.168Z,100119.00
2022-11-03T07:57:32.409Z,100126.38
2022-11-03T07:58:43.083Z,100130.22
2022-11-03T07:59:50.852Z,100118.81
2022-11-03T08:00:59.331Z,100127.66
2022-11-03T08:02:40.255Z,100134.56
2022-11-03T08:03:50.939Z,100130.34
2022-11-03T08:04:54.264Z,100126.06
2022-11-03T08:05:56.768Z,100134.41
2022-11-03T08:07:01.257Z,100134.56
2022-11-03T08:08:03.890Z,100131.66
2022-11-03T08:09:07.374Z,100136.31
2022-11-03T08:10:10.482Z,100131.19
2022-11-03T08:12:22.028Z,100123.81
2022-11-03T08:13:24.506Z,100125.72
2022-11-03T08:14:28.024Z,100132.78
2022-11-03T08:15:34.670Z,100129.72
2022-11-03T08:16:38.146Z,100124.91
2022-11-03T08:17:41.416Z,100126.38
2022-11-03T08:18:43.573Z,100133.44
2022-11-03T08:19:46.798Z,100130.84
2022-11-03T08:20:50.185Z,100132.94
2022-11-03T08:21:52.843Z,100133.09
2022-11-03T08:23:24.059Z,100126.69
2022-11-03T08:24:19.484Z,100133.44
2022-11-03T08:25:22.356Z,100125.41
2022-11-03T08:26:26.050Z,100126.84
2022-11-03T08:27:28.136Z,100129.25
2022-11-03T08:28:31.141Z,100119.75
2022-11-03T08:29:33.250Z,100126.34
2022-11-03T08:30:35.564Z,100125.22
2022-11-03T08:31:38.954Z,100121.56
2022-11-03T08:36:04.142Z,100117.09
2022-11-03T08:37:13.318Z,100121.56
2022-11-03T08:38:31.630Z,100123.63
2022-11-03T08:39:36.336Z,100122.94
2022-11-03T08:40:52.742Z,100119.66
2022-11-03T08:42:40.775Z,100116.44
2022-11-03T08:46:42.485Z,100126.72
2022-11-03T08:48:52.082Z,100117.41
2022-11-03T08:49:55.357Z,100114.19
2022-11-03T08:51:31.243Z,100116.13
2022-11-03T08:52:58.118Z,100110.81
2022-11-03T08:54:36.914Z,100119.63
2022-11-03T08:56:22.397Z,100123.16
2022-11-03T09:12:26.053Z,100120.13
2022-11-03T09:23:01.106Z,100118.34
2022-11-03T09:24:11.992Z,100115.31
2022-11-03T09:25:38.453Z,100111.94
2022-11-03T09:29:19.482Z,100118.34
2022-11-03T09:32:58.783Z,100112.41
2022-11-03T09:35:23.435Z,100110.50
2022-11-03T09:36:30.672Z,100106.50
2022-11-03T09:37:52.030Z,100104.41
2022-11-03T09:39:27.250Z,100119.63
2022-11-03T09:40:31.991Z,100099.91
2022-11-03T09:42:10.008Z,100106.63
2022-11-03T09:46:44.337Z,100112.22
2022-11-03T09:48:06.243Z,100106.34
2022-11-03T09:49:27.270Z,100110.16
2022-11-03T09:50:32.716Z,100106.50
2022-11-03T09:51:45.242Z,100110.19
2022-11-03T09:52:57.053Z,100110.34
2022-11-03T09:54:04.041Z,100109.72
2022-11-03T09:55:13.968Z,100108.59
2022-11-03T09:56:22.500Z,100105.38
2022-11-03T09:57:31.257Z,100105.22
2022-11-03T09:58:34.809Z,100107.63
2022-11-03T09:59:37.897Z,100100.41
2022-11-03T10:00:41.388Z,100103.94
2022-11-03T10:01:46.123Z,100110.22
2022-11-03T10:02:50.686Z,100102.81
2022-11-03T10:03:55.013Z,100101.38
2022-11-03T10:05:06.833Z,100102.00
2022-11-03T10:06:15.459Z,100110.66
2022-11-03T10:07:17.677Z,100105.88
2022-11-03T10:08:36.225Z,100110.97
2022-11-03T10:09:45.609Z,100111.94
2022-11-03T10:10:48.098Z,100109.06
2022-11-03T10:11:53.081Z,100114.00
2022-11-03T10:12:56.222Z,100110.97
2022-11-03T10:13:59.058Z,100108.22
2022-11-03T10:15:01.262Z,100104.06
2022-11-03T10:16:08.116Z,100109.53
2022-11-03T10:17:15.746Z,100110.50
2022-11-03T10:18:19.247Z,100116.09
2022-11-03T10:19:21.527Z,100107.94
2022-11-03T10:20:24.043Z,100116.72
2022-11-03T10:21:29.917Z,100107.28
2022-11-03T10:22:32.065Z,100104.06
2022-11-03T10:23:34.092Z,100111.94
2022-11-03T10:24:36.117Z,100111.31
2022-11-03T10:25:41.180Z,100105.53
2022-11-03T10:26:49.230Z,100121.25
2022-11-03T10:27:51.247Z,100112.59
2022-11-03T10:29:04.608Z,100118.34
2022-11-03T10:30:09.826Z,100119.63
2022-11-03T10:31:21.932Z,100117.84
2022-11-03T10:32:31.389Z,100113.81
2022-11-03T10:33:41.925Z,100112.53
2022-11-03T10:34:45.492Z,100119.84
2022-11-03T10:35:48.617Z,100105.16
2022-11-03T10:37:11.526Z,100113.38
2022-11-03T10:38:31.025Z,100106.47
2022-11-03T10:39:33.659Z,100114.97
2022-11-03T10:40:52.531Z,100110.66
2022-11-03T10:41:58.734Z,100115.66
2022-11-03T10:43:01.015Z,100111.66
2022-11-03T10:44:06.209Z,100111.31
2022-11-03T10:45:18.480Z,100106.81
2022-11-03T10:46:36.989Z,100103.00
2022-11-03T10:48:00.709Z,100105.56
2022-11-03T10:49:16.203Z,100103.94
2022-11-03T10:50:26.037Z,100107.47
2022-11-03T10:51:29.298Z,100101.84
2022-11-03T10:52:32.717Z,100104.88
2022-11-03T10:53:34.886Z,100103.44
2022-11-03T10:54:38.146Z,100105.84
2022-11-03T10:55:40.998Z,100100.56
2022-11-03T10:56:44.584Z,100099.28
2022-11-03T10:57:51.961Z,100107.47
2022-11-03T11:00:01.356Z,100115.13
2022-11-03T11:01:06.622Z,100102.91
2022-11-03T11:02:32.247Z,100106.31
2022-11-03T11:03:39.222Z,100099.28
2022-11-03T11:04:41.929Z,100104.69
2022-11-03T11:05:45.771Z,100114.19
2022-11-03T11:06:48.582Z,100109.03
2022-11-03T11:07:55.227Z,100114.34
2022-11-03T11:09:02.206Z,100107.91
2022-11-03T11:10:26.894Z,100108.41
2022-11-03T11:11:29.423Z,100109.69
2022-11-03T11:12:31.631Z,100110.19
2022-11-03T11:13:33.879Z,100100.75
2022-11-03T11:14:39.681Z,100109.22
2022-11-03T11:15:47.987Z,100108.72
2022-11-03T11:16:55.821Z,100118.03
2022-11-03T11:17:58.503Z,100114.50
2022-11-03T11:19:01.982Z,100111.94
2022-11-03T11:20:22.472Z,100105.31
2022-11-03T11:21:29.648Z,100108.06
2022-11-03T11:22:34.989Z,100106.25
2022-11-03T11:23:37.069Z,100110.41
2022-11-03T11:24:44.971Z,100105.81
2022-11-03T11:26:16.534Z,100111.13
2022-11-03T11:27:41.754Z,100109.81
2022-11-03T11:28:46.841Z,100107.84
2022-11-03T11:29:48.883Z,100116.06
2022-11-03T11:30:53.626Z,100112.84
2022-11-03T11:31:55.658Z,100110.66
2022-11-03T11:33:22.456Z,100112.50
2022-11-03T11:34:24.520Z,100101.94
2022-11-03T11:35:26.725Z,100107.22
2022-11-03T11:36:28.991Z,100109.78
2022-11-03T11:37:34.121Z,100105.09
2022-11-03T11:38:46.635Z,100106.81
2022-11-03T11:39:48.721Z,100100.50
2022-11-03T11:40:51.227Z,100107.06
2022-11-03T11:42:23.505Z,100107.38
2022-11-03T11:43:27.428Z,100101.25
2022-11-03T11:44:54.807Z,100104.22
2022-11-03T11:46:34.637Z,100100.16
2022-11-03T11:47:49.353Z,100096.78
2022-11-03T11:49:02.556Z,100103.22
2022-11-03T11:50:07.572Z,100106.69
2022-11-03T11:51:12.157Z,100103.91
2022-11-03T11:52:19.035Z,100100.34
2022-11-03T11:53:26.274Z,100107.22
2022-11-03T11:54:33.625Z,100105.44
2022-11-03T11:55:41.104Z,100100.50
2022-11-03T11:56:44.340Z,100104.69
2022-11-03T11:57:46.994Z,100108.06
2022-11-03T11:58:53.282Z,100103.91
2022-11-03T11:59:56.518Z,100105.66
2022-11-03T12:01:01.558Z,100110.75
2022-11-03T12:02:16.078Z,100104.50
2022-11-03T12:03:25.980Z,100106.56
2022-11-03T12:04:31.869Z,100115.28
2022-11-03T12:05:36.121Z,100107.75
2022-11-03T12:06:40.522Z,100102.97
2022-11-03T12:07:42.692Z,100112.72
2022-11-03T12:08:44.853Z,100108.25
2022-11-03T12:09:47.180Z,100112.25
2022-11-03T12:10:54.244Z,100109.22
2022-11-03T12:12:07.116Z,100119.31
2022-11-03T12:13:47.563Z,100113.88
2022-11-03T12:14:49.661Z,100115.78
2022-11-03T12:15:56.695Z,100117.72
2022-11-03T12:17:20.151Z,100117.56
2022-11-03T12:18:38.111Z,100109.84
2022-11-03T12:19:46.846Z,100109.22
2022-11-03T12:20:51.319Z,100115.94
2022-11-03T12:21:54.072Z,100112.44
2022-11-03T12:22:56.441Z,100113.41
2022-11-03T12:23:58.476Z,100114.84
2022-11-03T12:25:08.684Z,100112.28
2022-11-03T12:26:39.642Z,100115.47
2022-11-03T12:27:43.386Z,100119.66
2022-11-03T12:28:47.645Z,100116.59
2022-11-03T12:29:49.761Z,100107.31
2022-11-03T12:30:52.316Z,100111.31
2022-11-03T12:31:54.402Z,100118.06
2022-11-03T12:32:57.730Z,100111.31
2022-11-03T12:33:59.827Z,100109.38
2022-11-03T12:35:06.478Z,100117.88
2022-11-03T12:36:09.084Z,100111.16
2022-11-03T12:37:11.387Z,100107.94
2022-11-03T12:38:13.623Z,100114.69
2022-11-03T12:39:15.610Z,100110.22
2022-11-03T12:40:17.824Z,100109.72
2022-11-03T12:41:22.640Z,100109.56
2022-11-03T12:42:25.554Z,100108.06
2022-11-03T12:43:27.680Z,100113.06
2022-11-03T12:44:29.931Z,100110.19
2022-11-03T12:45:32.274Z,100104.56
2022-11-03T12:46:34.520Z,100109.72
2022-11-03T12:47:38.183Z,100106.84
2022-11-03T12:48:44.097Z,100113.88
2022-11-03T12:49:46.222Z,100110.84
2022-11-03T12:50:48.488Z,100106.50
2022-11-03T12:51:50.694Z,100112.91
2022-11-03T12:52:53.049Z,100112.59
2022-11-03T12:53:55.054Z,100116.75
2022-11-03T12:54:57.578Z,100113.56
2022-11-03T12:56:01.311Z,100117.41
2022-11-03T12:57:05.480Z,100108.44
2022-11-03T12:58:08.046Z,100110.66
2022-11-03T12:59:12.088Z,100111.94
2022-11-03T13:00:15.979Z,100107.91
2022-11-03T13:01:18.881Z,100113.50
2022-11-03T13:02:22.450Z,100110.66
2022-11-03T13:03:26.032Z,100110.16
2022-11-03T13:04:28.105Z,100108.41
2022-11-03T13:05:30.697Z,100120.75
2022-11-03T13:06:33.102Z,100111.31
2022-11-03T13:07:36.980Z,100107.59
2022-11-03T13:08:41.674Z,100116.28
2022-11-03T13:09:43.730Z,100120.91
2022-11-03T13:10:45.716Z,100112.41
2022-11-03T13:12:05.927Z,100110.34
2022-11-03T13:13:08.235Z,100116.59
2022-11-03T13:14:11.836Z,100116.09
2022-11-03T13:15:16.083Z,100118.34
2022-11-03T13:16:20.079Z,100121.88
2022-11-03T13:17:31.854Z,100117.88
2022-11-03T13:18:37.864Z,100115.50
2022-11-03T13:19:40.997Z,100122.38
2022-11-03T13:20:46.087Z,100115.78
2022-11-03T13:21:48.471Z,100121.06
2022-11-03T13:22:50.551Z,100121.41
2022-11-03T13:23:53.938Z,100124.94
2022-11-03T13:24:55.981Z,100115.00
2022-11-03T13:25:58.351Z,100112.59
2022-11-03T13:27:00.477Z,100119.66
2022-11-03T13:28:04.201Z,100122.53
2022-11-03T13:29:08.502Z,100115.47
2022-11-03T13:30:12.270Z,100122.34
2022-11-03T13:31:14.282Z,100117.06
2022-11-03T13:32:21.878Z,100123.00
2022-11-03T13:33:24.229Z,100118.84
2022-11-03T13:34:27.691Z,100124.28
2022-11-03T13:35:32.941Z,100124.28
2022-11-03T13:36:48.608Z,100127.66
2022-11-03T13:37:51.174Z,100134.53
2022-11-03T13:38:53.210Z,100126.84
2022-11-03T13:40:05.826Z,100129.09
2022-11-03T13:41:12.650Z,100130.56
2022-11-03T13:42:14.665Z,100124.75
2022-11-03T13:43:16.816Z,100130.22
2022-11-03T13:44:21.649Z,100131.19
2022-11-03T13:45:26.311Z,100129.09
2022-11-03T13:46:28.424Z,100130.34
2022-11-03T13:47:41.999Z,100131.34
2022-11-03T13:50:18.083Z,100127.50
2022-11-03T13:51:25.654Z,100128.63
2022-11-03T13:52:28.745Z,100134.84